sensor_id;sensor_type;location;lat;lon;timestamp;temperature;humidity
1429;DHT22;708;51.442;7.016;2022-08-21T00:02:26;20.80;99.90
1429;DHT22;708;51.442;7.016;2022-08-21T00:04:54;20.70;99.90
1429;DHT22;708;51.442;7.016;2022-08-21T00:07:21;20.70;99.90
1429;DHT22;708;51.442;7.016;2022-08-21T00:09:49;20.70;99.90
1429;DHT22;708;51.442;7.016;2022-08-21T00:12:16;20.60;99.90
1429;DHT22;708;51.442;7.016;2022-08-21T00:14:43;20.50;99.90
1429;DHT22;708;51.442;7.016;2022-08-21T00:17:10;20.50;99.90
1429;DHT22;708;51.442;7.016;2022-08-21T00:19:36;20.40;99.90
1429;DHT22;708;51.442;7.016;2022-08-21T00:22:03;20.30;99.90
1429;DHT22;708;51.442;7.016;2022-08-21T00:24:30;20.30;99.90
1429;DHT22;708;51.442;7.016;2022-08-21T00:26:59;20.20;99.90
1429;DHT22;708;51.442;7.016;2022-08-21T00:29:25;20.10;99.90
1429;DHT22;708;51.442;7.016;2022-08-21T00:31:52;19.90;99.90
1429;DHT22;708;51.442;7.016;2022-08-21T00:34:19;19.90;99.90
1429;DHT22;708;51.442;7.016;2022-08-21T00:36:46;19.80;99.90
1429;DHT22;708;51.442;7.016;2022-08-21T00:39:13;19.80;99.90
1429;DHT22;708;51.442;7.016;2022-08-21T00:41:41;19.70;99.90
1429;DHT22;708;51.442;7.016;2022-08-21T00:44:13;19.70;99.90
1429;DHT22;708;51.442;7.016;2022-08-21T00:46:42;19.60;99.90
1429;DHT22;708;51.442;7.016;2022-08-21T00:49:11;19.60;99.90
1429;DHT22;708;51.442;7.016;2022-08-21T00:51:43;19.60;99.90
1429;DHT22;708;51.442;7.016;2022-08-21T00:54:15;19.60;99.90
1429;DHT22;708;51.442;7.016;2022-08-21T00:56:42;19.60;99.90
1429;DHT22;708;51.442;7.016;2022-08-21T00:59:11;19.70;99.90
1429;DHT22;708;51.442;7.016;2022-08-21T01:01:38;19.60;99.90
1429;DHT22;708;51.442;7.016;2022-08-21T01:04:04;19.70;99.90
1429;DHT22;708;51.442;7.016;2022-08-21T01:06:31;19.60;99.90
1429;DHT22;708;51.442;7.016;2022-08-21T01:08:58;19.60;99.90
1429;DHT22;708;51.442;7.016;2022-08-21T01:11:25;19.60;99.90
1429;DHT22;708;51.442;7.016;2022-08-21T01:13:52;19.60;99.90
1429;DHT22;708;51.442;7.016;2022-08-21T01:16:21;19.50;99.90
1429;DHT22;708;51.442;7.016;2022-08-21T01:18:49;19.40;99.90
1429;DHT22;708;51.442;7.016;2022-08-21T01:21:19;19.30;99.90
1429;DHT22;708;51.442;7.016;2022-08-21T01:23:49;19.20;99.90
1429;DHT22;708;51.442;7.016;2022-08-21T01:26:21;19.10;99.90
1429;DHT22;708;51.442;7.016;2022-08-21T01:28:52;19.00;99.90
1429;DHT22;708;51.442;7.016;2022-08-21T01:33:49;18.80;99.90
1429;DHT22;708;51.442;7.016;2022-08-21T01:36:18;18.70;99.90
1429;DHT22;708;51.442;7.016;2022-08-21T01:38:45;18.70;99.90
1429;DHT22;708;51.442;7.016;2022-08-21T01:41:12;18.70;99.90
1429;DHT22;708;51.442;7.016;2022-08-21T01:43:40;18.70;99.90
1429;DHT22;708;51.442;7.016;2022-08-21T01:46:07;18.60;99.90
1429;DHT22;708;51.442;7.016;2022-08-21T01:48:35;18.50;99.90
1429;DHT22;708;51.442;7.016;2022-08-21T01:51:02;18.50;99.90
1429;DHT22;708;51.442;7.016;2022-08-21T01:53:30;18.40;99.90
1429;DHT22;708;51.442;7.016;2022-08-21T01:55:59;18.40;99.90
1429;DHT22;708;51.442;7.016;2022-08-21T01:58:26;18.30;99.90
1429;DHT22;708;51.442;7.016;2022-08-21T02:00:53;18.30;99.90
1429;DHT22;708;51.442;7.016;2022-08-21T02:03:20;18.30;99.90
1429;DHT22;708;51.442;7.016;2022-08-21T02:05:47;18.20;99.90
1429;DHT22;708;51.442;7.016;2022-08-21T02:08:13;18.20;99.90
1429;DHT22;708;51.442;7.016;2022-08-21T02:10:41;18.10;99.90
1429;DHT22;708;51.442;7.016;2022-08-21T02:13:08;18.10;99.90
1429;DHT22;708;51.442;7.016;2022-08-21T02:15:35;18.10;99.90
1429;DHT22;708;51.442;7.016;2022-08-21T02:18:05;18.10;99.90
1429;DHT22;708;51.442;7.016;2022-08-21T02:20:35;18.00;99.90
1429;DHT22;708;51.442;7.016;2022-08-21T02:23:04;17.90;99.90
1429;DHT22;708;51.442;7.016;2022-08-21T02:25:32;17.90;99.90
1429;DHT22;708;51.442;7.016;2022-08-21T02:28:04;17.90;99.90
1429;DHT22;708;51.442;7.016;2022-08-21T02:30:34;17.80;99.90
1429;DHT22;708;51.442;7.016;2022-08-21T02:33:04;17.80;99.90
1429;DHT22;708;51.442;7.016;2022-08-21T02:35:31;17.70;99.90
1429;DHT22;708;51.442;7.016;2022-08-21T02:38:00;17.70;99.90
1429;DHT22;708;51.442;7.016;2022-08-21T02:40:29;17.70;99.90
1429;DHT22;708;51.442;7.016;2022-08-21T02:42:56;17.70;99.90
1429;DHT22;708;51.442;7.016;2022-08-21T02:45:25;17.70;99.90
1429;DHT22;708;51.442;7.016;2022-08-21T02:47:55;17.70;99.90
1429;DHT22;708;51.442;7.016;2022-08-21T02:50:23;17.70;99.90
1429;DHT22;708;51.442;7.016;2022-08-21T02:52:51;17.70;99.90
1429;DHT22;708;51.442;7.016;2022-08-21T02:55:19;17.80;99.90
1429;DHT22;708;51.442;7.016;2022-08-21T02:57:47;17.70;99.90
1429;DHT22;708;51.442;7.016;2022-08-21T03:00:14;17.70;99.90
1429;DHT22;708;51.442;7.016;2022-08-21T03:02:43;17.80;99.90
1429;DHT22;708;51.442;7.016;2022-08-21T03:05:12;17.80;99.90
1429;DHT22;708;51.442;7.016;2022-08-21T03:07:41;17.80;99.90
1429;DHT22;708;51.442;7.016;2022-08-21T03:10:08;17.90;99.90
1429;DHT22;708;51.442;7.016;2022-08-21T03:12:35;17.90;99.90
1429;DHT22;708;51.442;7.016;2022-08-21T03:15:03;18.00;99.90
1429;DHT22;708;51.442;7.016;2022-08-21T03:17:30;18.00;99.90
1429;DHT22;708;51.442;7.016;2022-08-21T03:19:59;18.00;99.90
1429;DHT22;708;51.442;7.016;2022-08-21T03:22:26;18.00;99.90
1429;DHT22;708;51.442;7.016;2022-08-21T03:24:54;18.00;99.90
1429;DHT22;708;51.442;7.016;2022-08-21T03:27:22;18.10;99.90
1429;DHT22;708;51.442;7.016;2022-08-21T03:29:49;18.10;99.90
1429;DHT22;708;51.442;7.016;2022-08-21T03:32:16;18.20;99.90
1429;DHT22;708;51.442;7.016;2022-08-21T03:34:43;18.10;99.90
1429;DHT22;708;51.442;7.016;2022-08-21T03:37:11;18.10;99.90
1429;DHT22;708;51.442;7.016;2022-08-21T03:39:38;18.10;99.90
1429;DHT22;708;51.442;7.016;2022-08-21T03:42:07;18.10;99.90
1429;DHT22;708;51.442;7.016;2022-08-21T03:44:34;18.10;99.90
1429;DHT22;708;51.442;7.016;2022-08-21T03:47:02;18.10;99.90
1429;DHT22;708;51.442;7.016;2022-08-21T03:49:29;18.10;99.90
1429;DHT22;708;51.442;7.016;2022-08-21T03:51:56;18.10;99.90
1429;DHT22;708;51.442;7.016;2022-08-21T03:54:24;18.10;99.90
1429;DHT22;708;51.442;7.016;2022-08-21T03:56:51;18.10;99.90
1429;DHT22;708;51.442;7.016;2022-08-21T03:59:18;18.10;99.90
1429;DHT22;708;51.442;7.016;2022-08-21T04:01:52;18.10;99.90
1429;DHT22;708;51.442;7.016;2022-08-21T04:04:19;18.00;99.90
1429;DHT22;708;51.442;7.016;2022-08-21T04:06:46;17.90;99.90
1429;DHT22;708;51.442;7.016;2022-08-21T04:09:12;17.80;99.90
1429;DHT22;708;51.442;7.016;2022-08-21T04:11:40;17.70;99.90
1429;DHT22;708;51.442;7.016;2022-08-21T04:14:07;17.60;99.90
1429;DHT22;708;51.442;7.016;2022-08-21T04:16:34;17.60;99.90
1429;DHT22;708;51.442;7.016;2022-08-21T04:19:01;17.50;99.90
1429;DHT22;708;51.442;7.016;2022-08-21T04:21:27;17.50;99.90
1429;DHT22;708;51.442;7.016;2022-08-21T04:23:55;17.40;99.90
1429;DHT22;708;51.442;7.016;2022-08-21T04:26:22;17.40;99.90
1429;DHT22;708;51.442;7.016;2022-08-21T04:28:50;17.40;99.90
1429;DHT22;708;51.442;7.016;2022-08-21T04:31:17;17.50;99.90
1429;DHT22;708;51.442;7.016;2022-08-21T04:33:44;17.50;99.90
1429;DHT22;708;51.442;7.016;2022-08-21T04:36:11;17.50;99.90
1429;DHT22;708;51.442;7.016;2022-08-21T04:38:38;17.50;99.90
1429;DHT22;708;51.442;7.016;2022-08-21T04:41:05;17.50;99.90
1429;DHT22;708;51.442;7.016;2022-08-21T04:43:32;17.60;99.90
1429;DHT22;708;51.442;7.016;2022-08-21T04:46:00;17.50;99.90
1429;DHT22;708;51.442;7.016;2022-08-21T04:48:27;17.60;99.90
1429;DHT22;708;51.442;7.016;2022-08-21T04:50:59;17.80;99.90
1429;DHT22;708;51.442;7.016;2022-08-21T04:53:31;17.80;99.90
1429;DHT22;708;51.442;7.016;2022-08-21T04:56:02;17.90;99.90
1429;DHT22;708;51.442;7.016;2022-08-21T04:58:30;18.10;99.90
1429;DHT22;708;51.442;7.016;2022-08-21T05:01:01;18.20;99.90
1429;DHT22;708;51.442;7.016;2022-08-21T05:03:29;18.30;99.90
1429;DHT22;708;51.442;7.016;2022-08-21T05:05:57;18.40;99.90
1429;DHT22;708;51.442;7.016;2022-08-21T05:08:25;18.70;99.90
1429;DHT22;708;51.442;7.016;2022-08-21T05:10:54;19.00;99.90
1429;DHT22;708;51.442;7.016;2022-08-21T05:13:21;19.20;99.90
1429;DHT22;708;51.442;7.016;2022-08-21T05:15:47;19.30;99.90
1429;DHT22;708;51.442;7.016;2022-08-21T05:18:15;19.30;99.90
1429;DHT22;708;51.442;7.016;2022-08-21T05:20:42;19.30;99.90
1429;DHT22;708;51.442;7.016;2022-08-21T05:23:14;19.30;99.90
1429;DHT22;708;51.442;7.016;2022-08-21T05:25:41;19.30;99.90
1429;DHT22;708;51.442;7.016;2022-08-21T05:28:09;19.40;99.90
1429;DHT22;708;51.442;7.016;2022-08-21T05:30:36;19.50;99.90
1429;DHT22;708;51.442;7.016;2022-08-21T05:33:05;19.80;99.90
1429;DHT22;708;51.442;7.016;2022-08-21T05:35:34;20.50;99.90
1429;DHT22;708;51.442;7.016;2022-08-21T05:38:01;21.60;99.90
1429;DHT22;708;51.442;7.016;2022-08-21T05:40:28;22.60;99.90
1429;DHT22;708;51.442;7.016;2022-08-21T05:42:55;23.50;99.90
1429;DHT22;708;51.442;7.016;2022-08-21T05:45:23;24.50;99.90
1429;DHT22;708;51.442;7.016;2022-08-21T05:47:51;25.40;99.90
1429;DHT22;708;51.442;7.016;2022-08-21T05:50:18;26.30;99.90
1429;DHT22;708;51.442;7.016;2022-08-21T05:52:46;27.00;99.90
1429;DHT22;708;51.442;7.016;2022-08-21T05:55:13;27.60;99.90
1429;DHT22;708;51.442;7.016;2022-08-21T05:57:40;28.40;99.90
1429;DHT22;708;51.442;7.016;2022-08-21T06:00:08;29.00;97.90
1429;DHT22;708;51.442;7.016;2022-08-21T06:02:35;29.50;96.20
1429;DHT22;708;51.442;7.016;2022-08-21T06:05:03;30.00;94.80
1429;DHT22;708;51.442;7.016;2022-08-21T06:07:30;30.30;93.40
1429;DHT22;708;51.442;7.016;2022-08-21T06:09:58;30.90;92.00
1429;DHT22;708;51.442;7.016;2022-08-21T06:12:25;31.50;90.10
1429;DHT22;708;51.442;7.016;2022-08-21T06:14:52;31.90;87.60
1429;DHT22;708;51.442;7.016;2022-08-21T06:17:19;32.40;84.80
1429;DHT22;708;51.442;7.016;2022-08-21T06:19:51;32.70;81.50
1429;DHT22;708;51.442;7.016;2022-08-21T06:22:17;32.90;79.50
1429;DHT22;708;51.442;7.016;2022-08-21T06:24:44;33.00;77.90
1429;DHT22;708;51.442;7.016;2022-08-21T06:27:12;33.50;76.10
1429;DHT22;708;51.442;7.016;2022-08-21T06:29:40;33.70;74.20
1429;DHT22;708;51.442;7.016;2022-08-21T06:32:10;33.70;72.80
1429;DHT22;708;51.442;7.016;2022-08-21T06:34:38;33.80;71.80
1429;DHT22;708;51.442;7.016;2022-08-21T06:37:05;34.00;70.80
1429;DHT22;708;51.442;7.016;2022-08-21T06:39:33;34.10;70.20
1429;DHT22;708;51.442;7.016;2022-08-21T06:42:00;34.60;68.50
1429;DHT22;708;51.442;7.016;2022-08-21T06:44:29;35.10;67.40
1429;DHT22;708;51.442;7.016;2022-08-21T06:46:55;35.10;66.20
1429;DHT22;708;51.442;7.016;2022-08-21T06:49:22;35.50;64.80
1429;DHT22;708;51.442;7.016;2022-08-21T06:51:49;35.70;63.90
1429;DHT22;708;51.442;7.016;2022-08-21T06:54:16;36.10;61.80
1429;DHT22;708;51.442;7.016;2022-08-21T06:56:43;36.50;61.00
1429;DHT22;708;51.442;7.016;2022-08-21T06:59:09;36.90;59.90
1429;DHT22;708;51.442;7.016;2022-08-21T07:01:38;37.30;59.00
1429;DHT22;708;51.442;7.016;2022-08-21T07:04:04;37.60;57.90
1429;DHT22;708;51.442;7.016;2022-08-21T07:06:31;37.90;56.70
1429;DHT22;708;51.442;7.016;2022-08-21T07:08:58;38.10;55.80
1429;DHT22;708;51.442;7.016;2022-08-21T07:11:26;38.10;55.20
1429;DHT22;708;51.442;7.016;2022-08-21T07:13:53;38.30;54.60
1429;DHT22;708;51.442;7.016;2022-08-21T07:16:22;38.40;54.20
1429;DHT22;708;51.442;7.016;2022-08-21T07:18:50;38.40;53.40
1429;DHT22;708;51.442;7.016;2022-08-21T07:21:17;38.40;53.60
1429;DHT22;708;51.442;7.016;2022-08-21T07:23:46;38.60;53.00
1429;DHT22;708;51.442;7.016;2022-08-21T07:26:17;38.80;52.30
1429;DHT22;708;51.442;7.016;2022-08-21T07:28:44;38.80;52.00
1429;DHT22;708;51.442;7.016;2022-08-21T07:31:13;38.70;52.10
1429;DHT22;708;51.442;7.016;2022-08-21T07:33:41;39.00;51.60
1429;DHT22;708;51.442;7.016;2022-08-21T07:36:10;39.30;51.00
1429;DHT22;708;51.442;7.016;2022-08-21T07:38:37;39.40;50.60
1429;DHT22;708;51.442;7.016;2022-08-21T07:41:13;39.30;50.20
1429;DHT22;708;51.442;7.016;2022-08-21T07:43:40;39.30;50.10
1429;DHT22;708;51.442;7.016;2022-08-21T07:46:07;39.50;49.60
1429;DHT22;708;51.442;7.016;2022-08-21T07:48:34;39.60;49.50
1429;DHT22;708;51.442;7.016;2022-08-21T07:51:04;40.10;48.90
1429;DHT22;708;51.442;7.016;2022-08-21T07:53:34;40.10;48.80
1429;DHT22;708;51.442;7.016;2022-08-21T07:56:01;40.00;48.20
1429;DHT22;708;51.442;7.016;2022-08-21T07:58:29;39.50;48.50
1429;DHT22;708;51.442;7.016;2022-08-21T08:00:55;39.10;49.10
1429;DHT22;708;51.442;7.016;2022-08-21T08:03:23;38.60;49.30
1429;DHT22;708;51.442;7.016;2022-08-21T08:05:50;38.40;49.70
1429;DHT22;708;51.442;7.016;2022-08-21T08:08:17;38.30;49.60
1429;DHT22;708;51.442;7.016;2022-08-21T08:10:45;38.00;50.10
1429;DHT22;708;51.442;7.016;2022-08-21T08:13:12;38.10;50.00
1429;DHT22;708;51.442;7.016;2022-08-21T08:15:39;38.30;49.60
1429;DHT22;708;51.442;7.016;2022-08-21T08:18:05;38.90;48.50
1429;DHT22;708;51.442;7.016;2022-08-21T08:20:32;38.90;48.50
1429;DHT22;708;51.442;7.016;2022-08-21T08:22:59;39.10;48.00
1429;DHT22;708;51.442;7.016;2022-08-21T08:25:27;39.30;47.70
1429;DHT22;708;51.442;7.016;2022-08-21T08:27:55;39.60;47.00
1429;DHT22;708;51.442;7.016;2022-08-21T08:30:22;39.70;47.30
1429;DHT22;708;51.442;7.016;2022-08-21T08:32:50;39.80;46.70
1429;DHT22;708;51.442;7.016;2022-08-21T08:35:17;39.70;46.90
1429;DHT22;708;51.442;7.016;2022-08-21T08:37:44;40.00;46.90
1429;DHT22;708;51.442;7.016;2022-08-21T08:40:18;40.30;46.20
1429;DHT22;708;51.442;7.016;2022-08-21T08:42:47;40.40;46.30
1429;DHT22;708;51.442;7.016;2022-08-21T08:45:20;40.50;46.00
1429;DHT22;708;51.442;7.016;2022-08-21T08:48:01;40.80;45.80
1429;DHT22;708;51.442;7.016;2022-08-21T08:50:39;41.30;44.90
1429;DHT22;708;51.442;7.016;2022-08-21T08:53:10;41.00;44.10
1429;DHT22;708;51.442;7.016;2022-08-21T08:55:41;41.10;44.40
1429;DHT22;708;51.442;7.016;2022-08-21T08:58:11;41.30;44.50
1429;DHT22;708;51.442;7.016;2022-08-21T09:00:41;41.20;43.80
1429;DHT22;708;51.442;7.016;2022-08-21T09:03:08;41.10;43.60
1429;DHT22;708;51.442;7.016;2022-08-21T09:05:42;41.00;44.10
1429;DHT22;708;51.442;7.016;2022-08-21T09:08:20;41.20;43.90
1429;DHT22;708;51.442;7.016;2022-08-21T09:11:01;41.40;43.70
1429;DHT22;708;51.442;7.016;2022-08-21T09:13:35;41.30;43.10
1429;DHT22;708;51.442;7.016;2022-08-21T09:16:10;41.20;43.10
1429;DHT22;708;51.442;7.016;2022-08-21T09:18:48;40.60;43.30
1429;DHT22;708;51.442;7.016;2022-08-21T09:21:27;39.90;43.70
1429;DHT22;708;51.442;7.016;2022-08-21T09:24:01;39.80;43.60
1429;DHT22;708;51.442;7.016;2022-08-21T09:26:34;38.90;44.40
1429;DHT22;708;51.442;7.016;2022-08-21T09:29:03;38.40;44.90
1429;DHT22;708;51.442;7.016;2022-08-21T09:31:35;37.50;46.00
1429;DHT22;708;51.442;7.016;2022-08-21T09:34:05;37.00;46.70
1429;DHT22;708;51.442;7.016;2022-08-21T09:36:39;36.60;47.00
1429;DHT22;708;51.442;7.016;2022-08-21T09:39:08;36.80;47.20
1429;DHT22;708;51.442;7.016;2022-08-21T09:41:36;36.70;46.80
1429;DHT22;708;51.442;7.016;2022-08-21T09:44:04;37.30;47.00
1429;DHT22;708;51.442;7.016;2022-08-21T09:46:33;37.70;46.20
1429;DHT22;708;51.442;7.016;2022-08-21T09:49:02;37.80;46.00
1429;DHT22;708;51.442;7.016;2022-08-21T09:51:31;38.00;45.60
1429;DHT22;708;51.442;7.016;2022-08-21T09:54:12;38.10;45.70
1429;DHT22;708;51.442;7.016;2022-08-21T09:56:52;38.20;45.30
1429;DHT22;708;51.442;7.016;2022-08-21T09:59:38;37.90;45.20
1429;DHT22;708;51.442;7.016;2022-08-21T10:02:22;37.70;46.20
1429;DHT22;708;51.442;7.016;2022-08-21T10:04:50;37.30;46.40
1429;DHT22;708;51.442;7.016;2022-08-21T10:07:21;36.80;46.80
1429;DHT22;708;51.442;7.016;2022-08-21T10:09:59;36.30;47.10
1429;DHT22;708;51.442;7.016;2022-08-21T10:12:30;35.70;48.30
1429;DHT22;708;51.442;7.016;2022-08-21T10:15:04;35.40;48.80
1429;DHT22;708;51.442;7.016;2022-08-21T10:17:41;34.80;49.40
1429;DHT22;708;51.442;7.016;2022-08-21T10:20:14;34.00;50.00
1429;DHT22;708;51.442;7.016;2022-08-21T10:22:53;33.20;50.80
1429;DHT22;708;51.442;7.016;2022-08-21T10:25:28;32.30;52.40
1429;DHT22;708;51.442;7.016;2022-08-21T10:28:00;31.60;53.50
1429;DHT22;708;51.442;7.016;2022-08-21T10:30:37;30.90;54.10
1429;DHT22;708;51.442;7.016;2022-08-21T10:33:15;30.40;55.20
1429;DHT22;708;51.442;7.016;2022-08-21T10:35:53;30.00;55.80
1429;DHT22;708;51.442;7.016;2022-08-21T10:38:50;29.50;56.70
1429;DHT22;708;51.442;7.016;2022-08-21T10:41:28;29.10;57.90
1429;DHT22;708;51.442;7.016;2022-08-21T10:44:05;28.70;58.80
1429;DHT22;708;51.442;7.016;2022-08-21T10:46:58;28.40;58.90
1429;DHT22;708;51.442;7.016;2022-08-21T10:49:39;28.00;60.10
1429;DHT22;708;51.442;7.016;2022-08-21T10:52:30;27.70;60.50
1429;DHT22;708;51.442;7.016;2022-08-21T10:55:06;27.60;62.50
1429;DHT22;708;51.442;7.016;2022-08-21T10:57:40;27.50;63.40
1429;DHT22;708;51.442;7.016;2022-08-21T11:00:13;27.30;62.80
1429;DHT22;708;51.442;7.016;2022-08-21T11:02:46;27.20;64.10
1429;DHT22;708;51.442;7.016;2022-08-21T11:05:21;27.20;64.60
1429;DHT22;708;51.442;7.016;2022-08-21T11:07:54;27.20;64.20
1429;DHT22;708;51.442;7.016;2022-08-21T11:10:26;27.20;65.20
1429;DHT22;708;51.442;7.016;2022-08-21T11:12:56;27.30;65.30
1429;DHT22;708;51.442;7.016;2022-08-21T11:15:31;27.40;66.30
1429;DHT22;708;51.442;7.016;2022-08-21T11:18:10;27.60;65.30
1429;DHT22;708;51.442;7.016;2022-08-21T11:20:48;27.70;65.60
1429;DHT22;708;51.442;7.016;2022-08-21T11:23:21;27.90;65.40
1429;DHT22;708;51.442;7.016;2022-08-21T11:25:52;28.00;64.90
1429;DHT22;708;51.442;7.016;2022-08-21T11:28:24;28.00;65.20
1429;DHT22;708;51.442;7.016;2022-08-21T11:31:01;27.90;65.30
1429;DHT22;708;51.442;7.016;2022-08-21T11:33:41;27.90;64.60
1429;DHT22;708;51.442;7.016;2022-08-21T11:36:17;27.90;65.10
1429;DHT22;708;51.442;7.016;2022-08-21T11:38:53;27.90;65.40
1429;DHT22;708;51.442;7.016;2022-08-21T11:41:29;27.90;65.40
1429;DHT22;708;51.442;7.016;2022-08-21T11:44:06;27.90;64.30
1429;DHT22;708;51.442;7.016;2022-08-21T11:46:40;27.90;64.30
1429;DHT22;708;51.442;7.016;2022-08-21T11:52:13;28.10;64.60
1429;DHT22;708;51.442;7.016;2022-08-21T11:54:45;28.10;65.10
1429;DHT22;708;51.442;7.016;2022-08-21T11:57:17;28.20;64.80
1429;DHT22;708;51.442;7.016;2022-08-21T11:59:49;28.40;65.30
1429;DHT22;708;51.442;7.016;2022-08-21T12:02:22;28.50;63.70
1429;DHT22;708;51.442;7.016;2022-08-21T12:04:52;28.50;64.60
1429;DHT22;708;51.442;7.016;2022-08-21T12:07:33;28.60;64.50
1429;DHT22;708;51.442;7.016;2022-08-21T12:10:03;28.70;64.20
1429;DHT22;708;51.442;7.016;2022-08-21T12:12:32;28.70;64.00
1429;DHT22;708;51.442;7.016;2022-08-21T12:15:24;28.70;63.80
1429;DHT22;708;51.442;7.016;2022-08-21T12:17:55;28.60;63.70
1429;DHT22;708;51.442;7.016;2022-08-21T12:20:36;28.50;63.10
1429;DHT22;708;51.442;7.016;2022-08-21T12:23:15;28.40;64.00
1429;DHT22;708;51.442;7.016;2022-08-21T12:25:44;28.30;64.30
1429;DHT22;708;51.442;7.016;2022-08-21T12:28:15;28.20;65.80
1429;DHT22;708;51.442;7.016;2022-08-21T12:30:44;28.10;65.60
1429;DHT22;708;51.442;7.016;2022-08-21T12:33:24;28.10;65.60
1429;DHT22;708;51.442;7.016;2022-08-21T12:36:00;28.10;65.40
1429;DHT22;708;51.442;7.016;2022-08-21T12:38:33;28.10;65.40
1429;DHT22;708;51.442;7.016;2022-08-21T12:41:09;28.00;65.20
1429;DHT22;708;51.442;7.016;2022-08-21T12:43:38;28.00;65.40
1429;DHT22;708;51.442;7.016;2022-08-21T12:46:18;27.90;64.80
1429;DHT22;708;51.442;7.016;2022-08-21T12:48:51;27.90;65.30
1429;DHT22;708;51.442;7.016;2022-08-21T12:51:26;27.90;65.30
1429;DHT22;708;51.442;7.016;2022-08-21T12:53:57;27.90;66.00
1429;DHT22;708;51.442;7.016;2022-08-21T12:56:27;28.00;66.50
1429;DHT22;708;51.442;7.016;2022-08-21T12:58:57;27.90;66.80
1429;DHT22;708;51.442;7.016;2022-08-21T13:01:27;28.00;67.20
1429;DHT22;708;51.442;7.016;2022-08-21T13:03:58;28.00;67.30
1429;DHT22;708;51.442;7.016;2022-08-21T13:06:27;28.00;67.20
1429;DHT22;708;51.442;7.016;2022-08-21T13:09:07;28.00;66.10
1429;DHT22;708;51.442;7.016;2022-08-21T13:11:35;28.00;67.00
1429;DHT22;708;51.442;7.016;2022-08-21T13:14:03;28.00;66.30
1429;DHT22;708;51.442;7.016;2022-08-21T13:16:31;28.20;66.30
1429;DHT22;708;51.442;7.016;2022-08-21T13:19:00;28.40;65.60
1429;DHT22;708;51.442;7.016;2022-08-21T13:21:29;28.50;65.80
1429;DHT22;708;51.442;7.016;2022-08-21T13:24:10;28.60;65.20
1429;DHT22;708;51.442;7.016;2022-08-21T13:26:38;28.70;65.50
1429;DHT22;708;51.442;7.016;2022-08-21T13:29:09;28.60;65.00
1429;DHT22;708;51.442;7.016;2022-08-21T13:31:38;28.60;66.40
1429;DHT22;708;51.442;7.016;2022-08-21T13:34:09;28.60;65.40
1429;DHT22;708;51.442;7.016;2022-08-21T13:36:40;28.60;66.40
1429;DHT22;708;51.442;7.016;2022-08-21T13:39:19;28.60;65.80
1429;DHT22;708;51.442;7.016;2022-08-21T13:41:49;28.60;64.70
1429;DHT22;708;51.442;7.016;2022-08-21T13:44:18;28.60;65.20
1429;DHT22;708;51.442;7.016;2022-08-21T13:46:48;28.60;64.60
1429;DHT22;708;51.442;7.016;2022-08-21T13:49:18;28.60;65.40
1429;DHT22;708;51.442;7.016;2022-08-21T13:51:46;28.60;65.80
1429;DHT22;708;51.442;7.016;2022-08-21T13:54:24;28.70;65.00
1429;DHT22;708;51.442;7.016;2022-08-21T13:56:51;28.80;65.20
1429;DHT22;708;51.442;7.016;2022-08-21T13:59:26;29.00;64.70
1429;DHT22;708;51.442;7.016;2022-08-21T14:01:55;29.10;63.50
1429;DHT22;708;51.442;7.016;2022-08-21T14:04:33;29.00;62.90
1429;DHT22;708;51.442;7.016;2022-08-21T14:07:03;29.10;63.50
1429;DHT22;708;51.442;7.016;2022-08-21T14:09:43;29.10;64.30
1429;DHT22;708;51.442;7.016;2022-08-21T14:12:14;29.20;63.60
1429;DHT22;708;51.442;7.016;2022-08-21T14:14:42;29.20;64.10
1429;DHT22;708;51.442;7.016;2022-08-21T14:17:12;29.20;63.80
1429;DHT22;708;51.442;7.016;2022-08-21T14:19:42;29.20;62.80
1429;DHT22;708;51.442;7.016;2022-08-21T14:22:29;29.10;62.80
1429;DHT22;708;51.442;7.016;2022-08-21T14:25:04;29.00;64.00
1429;DHT22;708;51.442;7.016;2022-08-21T14:27:33;29.00;63.70
1429;DHT22;708;51.442;7.016;2022-08-21T14:30:09;28.90;63.30
1429;DHT22;708;51.442;7.016;2022-08-21T14:32:39;28.90;63.20
1429;DHT22;708;51.442;7.016;2022-08-21T14:35:06;28.90;62.80
1429;DHT22;708;51.442;7.016;2022-08-21T14:37:34;28.90;62.50
1429;DHT22;708;51.442;7.016;2022-08-21T14:40:04;29.00;62.20
1429;DHT22;708;51.442;7.016;2022-08-21T14:42:31;29.10;62.60
1429;DHT22;708;51.442;7.016;2022-08-21T14:45:13;29.20;62.00
1429;DHT22;708;51.442;7.016;2022-08-21T14:47:40;29.30;61.60
1429;DHT22;708;51.442;7.016;2022-08-21T14:50:08;29.30;61.00
1429;DHT22;708;51.442;7.016;2022-08-21T14:52:35;29.50;61.30
1429;DHT22;708;51.442;7.016;2022-08-21T14:55:06;29.50;60.70
1429;DHT22;708;51.442;7.016;2022-08-21T14:57:33;29.70;59.50
1429;DHT22;708;51.442;7.016;2022-08-21T15:00:00;29.80;59.00
1429;DHT22;708;51.442;7.016;2022-08-21T15:02:27;30.00;58.70
1429;DHT22;708;51.442;7.016;2022-08-21T15:04:54;30.20;59.20
1429;DHT22;708;51.442;7.016;2022-08-21T15:07:21;30.30;59.10
1429;DHT22;708;51.442;7.016;2022-08-21T15:09:47;30.20;59.10
1429;DHT22;708;51.442;7.016;2022-08-21T15:12:15;30.10;59.40
1429;DHT22;708;51.442;7.016;2022-08-21T15:14:43;30.20;59.70
1429;DHT22;708;51.442;7.016;2022-08-21T15:17:10;30.30;59.70
1429;DHT22;708;51.442;7.016;2022-08-21T15:19:37;30.40;59.50
1429;DHT22;708;51.442;7.016;2022-08-21T15:22:05;30.30;58.80
1429;DHT22;708;51.442;7.016;2022-08-21T15:24:31;30.30;59.20
1429;DHT22;708;51.442;7.016;2022-08-21T15:27:00;30.30;58.90
1429;DHT22;708;51.442;7.016;2022-08-21T15:29:30;30.30;58.10
1429;DHT22;708;51.442;7.016;2022-08-21T15:32:01;30.30;58.30
1429;DHT22;708;51.442;7.016;2022-08-21T15:34:30;30.10;57.80
1429;DHT22;708;51.442;7.016;2022-08-21T15:36:58;30.00;58.00
1429;DHT22;708;51.442;7.016;2022-08-21T15:39:25;30.00;58.20
1429;DHT22;708;51.442;7.016;2022-08-21T15:41:52;29.80;58.70
1429;DHT22;708;51.442;7.016;2022-08-21T15:44:19;29.80;59.30
1429;DHT22;708;51.442;7.016;2022-08-21T15:46:47;29.80;59.20
1429;DHT22;708;51.442;7.016;2022-08-21T15:49:14;29.80;59.10
1429;DHT22;708;51.442;7.016;2022-08-21T15:51:41;29.60;58.50
1429;DHT22;708;51.442;7.016;2022-08-21T15:54:08;29.40;58.80
1429;DHT22;708;51.442;7.016;2022-08-21T15:56:37;29.30;59.20
1429;DHT22;708;51.442;7.016;2022-08-21T15:59:07;29.20;59.90
1429;DHT22;708;51.442;7.016;2022-08-21T16:01:35;29.10;60.40
1429;DHT22;708;51.442;7.016;2022-08-21T16:04:04;29.00;60.70
1429;DHT22;708;51.442;7.016;2022-08-21T16:06:31;28.90;61.30
1429;DHT22;708;51.442;7.016;2022-08-21T16:08:59;28.90;62.10
1429;DHT22;708;51.442;7.016;2022-08-21T16:11:27;28.90;62.00
1429;DHT22;708;51.442;7.016;2022-08-21T16:13:54;28.80;62.70
1429;DHT22;708;51.442;7.016;2022-08-21T16:16:23;28.80;62.00
1429;DHT22;708;51.442;7.016;2022-08-21T16:18:51;28.60;61.90
1429;DHT22;708;51.442;7.016;2022-08-21T16:21:19;28.50;62.40
1429;DHT22;708;51.442;7.016;2022-08-21T16:23:46;28.40;62.90
1429;DHT22;708;51.442;7.016;2022-08-21T16:26:14;28.40;63.40
1429;DHT22;708;51.442;7.016;2022-08-21T16:28:43;28.20;64.00
1429;DHT22;708;51.442;7.016;2022-08-21T16:31:11;28.10;64.30
1429;DHT22;708;51.442;7.016;2022-08-21T16:33:41;27.90;64.10
1429;DHT22;708;51.442;7.016;2022-08-21T16:36:09;27.80;64.60
1429;DHT22;708;51.442;7.016;2022-08-21T16:38:38;27.60;64.70
1429;DHT22;708;51.442;7.016;2022-08-21T16:41:09;27.50;64.90